sensor_id;sensor_type;location;lat;lon;timestamp;pressure;altitude;pressure_sealevel;temperature;humidity
49827;BME280;35715;51.570;6.036;2022-08-05T00:01:40;101337.03;;;23.06;72.25
49827;BME280;35715;51.570;6.036;2022-08-05T00:04:05;101341.44;;;23.09;72.72
49827;BME280;35715;51.570;6.036;2022-08-05T00:06:32;101344.06;;;23.09;72.93
49827;BME280;35715;51.570;6.036;2022-08-05T00:11:41;101336.94;;;23.03;72.95
49827;BME280;35715;51.570;6.036;2022-08-05T00:14:08;101336.97;;;23.04;72.16
49827;BME280;35715;51.570;6.036;2022-08-05T00:16:36;101315.97;;;23.06;72.00
49827;BME280;35715;51.570;6.036;2022-08-05T00:19:01;101314.19;;;23.05;72.21
49827;BME280;35715;51.570;6.036;2022-08-05T00:21:26;101317.66;;;23.04;71.89
49827;BME280;35715;51.570;6.036;2022-08-05T00:23:52;101317.63;;;23.02;72.15
49827;BME280;35715;51.570;6.036;2022-08-05T00:26:19;101323.72;;;23.00;71.62
49827;BME280;35715;51.570;6.036;2022-08-05T00:28:45;101321.84;;;22.96;72.17
49827;BME280;35715;51.570;6.036;2022-08-05T00:31:10;101324.47;;;22.96;72.79
49827;BME280;35715;51.570;6.036;2022-08-05T00:33:35;101326.25;;;22.95;72.87
49827;BME280;35715;51.570;6.036;2022-08-05T00:36:02;101329.66;;;22.93;73.12
49827;BME280;35715;51.570;6.036;2022-08-05T00:38:28;101323.47;;;22.91;72.31
49827;BME280;35715;51.570;6.036;2022-08-05T00:43:57;101316.78;;;22.68;73.29
49827;BME280;35715;51.570;6.036;2022-08-05T00:46:26;101314.75;;;22.58;73.34
49827;BME280;35715;51.570;6.036;2022-08-05T00:48:52;101322.50;;;22.52;74.02
49827;BME280;35715;51.570;6.036;2022-08-05T00:51:19;101319.88;;;22.52;74.87
49827;BME280;35715;51.570;6.036;2022-08-05T00:53:45;101320.88;;;22.57;75.23
49827;BME280;35715;51.570;6.036;2022-08-05T00:56:15;101320.00;;;22.57;75.43
49827;BME280;35715;51.570;6.036;2022-08-05T00:58:41;101315.69;;;22.28;75.92
49827;BME280;35715;51.570;6.036;2022-08-05T01:01:06;101317.59;;;22.32;74.87
49827;BME280;35715;51.570;6.036;2022-08-05T01:03:31;101309.66;;;22.31;74.12
49827;BME280;35715;51.570;6.036;2022-08-05T01:05:59;101314.13;;;22.33;75.15
49827;BME280;35715;51.570;6.036;2022-08-05T01:08:24;101307.28;;;22.40;75.47
49827;BME280;35715;51.570;6.036;2022-08-05T01:10:53;101307.28;;;22.40;75.03
49827;BME280;35715;51.570;6.036;2022-08-05T01:16:06;101304.56;;;22.37;75.22
49827;BME280;35715;51.570;6.036;2022-08-05T01:18:39;101301.97;;;22.39;74.84
49827;BME280;35715;51.570;6.036;2022-08-05T01:21:22;101300.19;;;22.38;74.43
49827;BME280;35715;51.570;6.036;2022-08-05T01:24:30;101296.38;;;22.26;74.94
49827;BME280;35715;51.570;6.036;2022-08-05T01:29:35;101315.59;;;22.25;75.61
49827;BME280;35715;51.570;6.036;2022-08-05T01:32:22;101314.72;;;22.25;75.53
49827;BME280;35715;51.570;6.036;2022-08-05T01:35:04;101325.28;;;22.26;76.32
49827;BME280;35715;51.570;6.036;2022-08-05T01:37:50;101331.56;;;22.31;75.72
49827;BME280;35715;51.570;6.036;2022-08-05T01:40:17;101341.38;;;22.37;74.48
49827;BME280;35715;51.570;6.036;2022-08-05T01:42:45;101357.25;;;22.40;74.59
49827;BME280;35715;51.570;6.036;2022-08-05T01:45:12;101371.38;;;22.44;75.64
49827;BME280;35715;51.570;6.036;2022-08-05T01:47:40;101373.13;;;22.45;74.70
49827;BME280;35715;51.570;6.036;2022-08-05T01:50:10;101384.56;;;22.45;75.46
49827;BME280;35715;51.570;6.036;2022-08-05T01:52:38;101400.31;;;22.44;74.58
49827;BME280;35715;51.570;6.036;2022-08-05T01:55:08;101397.59;;;22.41;75.70
49827;BME280;35715;51.570;6.036;2022-08-05T01:57:38;101390.50;;;22.38;75.24
49827;BME280;35715;51.570;6.036;2022-08-05T02:00:06;101392.13;;;22.35;75.59
49827;BME280;35715;51.570;6.036;2022-08-05T02:02:36;101399.19;;;22.36;75.71
49827;BME280;35715;51.570;6.036;2022-08-05T02:05:06;101395.69;;;22.35;75.51
49827;BME280;35715;51.570;6.036;2022-08-05T02:07:32;101403.66;;;22.38;75.89
49827;BME280;35715;51.570;6.036;2022-08-05T02:09:57;101411.53;;;22.38;75.44
49827;BME280;35715;51.570;6.036;2022-08-05T02:12:33;101424.50;;;22.32;75.01
49827;BME280;35715;51.570;6.036;2022-08-05T02:15:16;101422.72;;;22.31;75.33
49827;BME280;35715;51.570;6.036;2022-08-05T02:17:58;101426.31;;;22.35;76.31
49827;BME280;35715;51.570;6.036;2022-08-05T02:20:29;101440.31;;;22.33;76.45
49827;BME280;35715;51.570;6.036;2022-08-05T02:22:58;101443.78;;;22.32;76.90
49827;BME280;35715;51.570;6.036;2022-08-05T02:25:30;101415.47;;;22.24;75.77
49827;BME280;35715;51.570;6.036;2022-08-05T02:27:58;101372.66;;;21.97;76.34
49827;BME280;35715;51.570;6.036;2022-08-05T02:30:28;101342.50;;;21.85;77.70
49827;BME280;35715;51.570;6.036;2022-08-05T02:32:57;101306.41;;;21.77;77.70
49827;BME280;35715;51.570;6.036;2022-08-05T02:35:25;101290.19;;;21.62;77.53
49827;BME280;35715;51.570;6.036;2022-08-05T02:37:54;101318.22;;;21.63;79.13
49827;BME280;35715;51.570;6.036;2022-08-05T02:40:22;101367.97;;;21.58;78.72
49827;BME280;35715;51.570;6.036;2022-08-05T02:42:48;101377.56;;;21.56;78.26
49827;BME280;35715;51.570;6.036;2022-08-05T02:45:14;101372.41;;;21.59;78.54
49827;BME280;35715;51.570;6.036;2022-08-05T02:47:41;101354.16;;;21.64;78.71
49827;BME280;35715;51.570;6.036;2022-08-05T02:50:09;101356.97;;;21.70;77.81
49827;BME280;35715;51.570;6.036;2022-08-05T02:52:37;101350.00;;;21.72;78.87
49827;BME280;35715;51.570;6.036;2022-08-05T02:55:04;101356.03;;;21.68;78.97
49827;BME280;35715;51.570;6.036;2022-08-05T02:57:32;101348.91;;;21.64;79.09
49827;BME280;35715;51.570;6.036;2022-08-05T02:59:58;101355.63;;;21.56;79.27
49827;BME280;35715;51.570;6.036;2022-08-05T03:02:27;101357.25;;;21.51;78.95
49827;BME280;35715;51.570;6.036;2022-08-05T03:04:54;101358.81;;;21.45;78.93
49827;BME280;35715;51.570;6.036;2022-08-05T03:07:24;101373.50;;;21.40;79.06
49827;BME280;35715;51.570;6.036;2022-08-05T03:09:51;101374.81;;;21.26;80.77
49827;BME280;35715;51.570;6.036;2022-08-05T03:12:30;101369.06;;;21.38;78.84
49827;BME280;35715;51.570;6.036;2022-08-05T03:14:56;101369.81;;;21.34;79.50
49827;BME280;35715;51.570;6.036;2022-08-05T03:17:24;101354.97;;;21.36;78.69
49827;BME280;35715;51.570;6.036;2022-08-05T03:20:09;101337.09;;;21.24;78.04
49827;BME280;35715;51.570;6.036;2022-08-05T03:22:34;101317.09;;;20.99;79.36
49827;BME280;35715;51.570;6.036;2022-08-05T03:25:00;101321.16;;;20.90;79.71
49827;BME280;35715;51.570;6.036;2022-08-05T03:27:27;101322.81;;;20.87;79.57
49827;BME280;35715;51.570;6.036;2022-08-05T03:29:52;101333.31;;;20.87;80.31
49827;BME280;35715;51.570;6.036;2022-08-05T03:32:18;101331.66;;;20.90;81.60
49827;BME280;35715;51.570;6.036;2022-08-05T03:34:44;101313.63;;;20.74;81.21
49827;BME280;35715;51.570;6.036;2022-08-05T03:37:17;101323.84;;;20.66;80.38
49827;BME280;35715;51.570;6.036;2022-08-05T03:39:57;101337.97;;;20.70;80.09
49827;BME280;35715;51.570;6.036;2022-08-05T03:42:23;101352.44;;;20.60;79.66
49827;BME280;35715;51.570;6.036;2022-08-05T03:44:49;101352.50;;;20.62;79.95
49827;BME280;35715;51.570;6.036;2022-08-05T03:47:16;101352.59;;;20.65;79.68
49827;BME280;35715;51.570;6.036;2022-08-05T03:49:42;101346.94;;;20.77;80.18
49827;BME280;35715;51.570;6.036;2022-08-05T03:52:17;101356.81;;;20.84;79.60
49827;BME280;35715;51.570;6.036;2022-08-05T03:54:53;101354.47;;;20.93;79.04
49827;BME280;35715;51.570;6.036;2022-08-05T03:57:25;101354.53;;;20.95;79.38
49827;BME280;35715;51.570;6.036;2022-08-05T04:00:04;101358.84;;;20.92;78.55
49827;BME280;35715;51.570;6.036;2022-08-05T04:02:32;101353.56;;;20.91;78.21
49827;BME280;35715;51.570;6.036;2022-08-05T04:05:00;101344.22;;;20.73;76.65
49827;BME280;35715;51.570;6.036;2022-08-05T04:07:40;101340.16;;;20.58;75.98
49827;BME280;35715;51.570;6.036;2022-08-05T04:10:07;101344.38;;;20.54;76.15
49827;BME280;35715;51.570;6.036;2022-08-05T04:12:33;101361.28;;;20.62;77.83
49827;BME280;35715;51.570;6.036;2022-08-05T04:14:59;101361.53;;;20.68;76.89
49827;BME280;35715;51.570;6.036;2022-08-05T04:17:26;101362.34;;;20.67;77.62
49827;BME280;35715;51.570;6.036;2022-08-05T04:19:51;101360.72;;;20.71;77.64
49827;BME280;35715;51.570;6.036;2022-08-05T04:22:17;101372.19;;;20.73;77.51
49827;BME280;35715;51.570;6.036;2022-08-05T04:24:44;101373.16;;;20.77;78.00
49827;BME280;35715;51.570;6.036;2022-08-05T04:27:17;101385.41;;;20.76;77.24
49827;BME280;35715;51.570;6.036;2022-08-05T04:29:42;101413.16;;;20.71;76.21
49827;BME280;35715;51.570;6.036;2022-08-05T04:32:11;101426.97;;;20.65;76.91
49827;BME280;35715;51.570;6.036;2022-08-05T04:34:37;101419.75;;;20.60;77.29
49827;BME280;35715;51.570;6.036;2022-08-05T04:37:02;101378.19;;;20.46;77.59
49827;BME280;35715;51.570;6.036;2022-08-05T04:39:28;101385.16;;;20.21;78.29
49827;BME280;35715;51.570;6.036;2022-08-05T04:41:53;101401.38;;;20.11;79.32
49827;BME280;35715;51.570;6.036;2022-08-05T04:44:19;101387.16;;;20.05;77.88
49827;BME280;35715;51.570;6.036;2022-08-05T04:46:49;101373.22;;;19.83;76.65
49827;BME280;35715;51.570;6.036;2022-08-05T04:49:41;101403.84;;;19.84;79.04
49827;BME280;35715;51.570;6.036;2022-08-05T04:54:50;101393.13;;;20.00;78.53
49827;BME280;35715;51.570;6.036;2022-08-05T04:57:22;101383.22;;;19.93;79.23
49827;BME280;35715;51.570;6.036;2022-08-05T04:59:47;101391.22;;;19.96;79.43
49827;BME280;35715;51.570;6.036;2022-08-05T05:02:12;101389.28;;;19.92;79.28
49827;BME280;35715;51.570;6.036;2022-08-05T05:04:38;101382.19;;;19.88;79.46
49827;BME280;35715;51.570;6.036;2022-08-05T05:07:04;101374.38;;;19.90;79.08
49827;BME280;35715;51.570;6.036;2022-08-05T05:09:30;101370.56;;;19.81;79.32
49827;BME280;35715;51.570;6.036;2022-08-05T05:11:55;101386.81;;;19.74;79.79
49827;BME280;35715;51.570;6.036;2022-08-05T05:14:20;101386.16;;;19.78;80.32
49827;BME280;35715;51.570;6.036;2022-08-05T05:16:50;101393.19;;;19.79;80.37
49827;BME280;35715;51.570;6.036;2022-08-05T05:19:15;101398.44;;;19.79;80.55
49827;BME280;35715;51.570;6.036;2022-08-05T05:21:41;101402.38;;;19.92;79.40
49827;BME280;35715;51.570;6.036;2022-08-05T05:24:06;101403.41;;;19.96;80.20
49827;BME280;35715;51.570;6.036;2022-08-05T05:29:35;101393.47;;;19.87;79.44
49827;BME280;35715;51.570;6.036;2022-08-05T05:32:00;101406.50;;;19.85;81.50
49827;BME280;35715;51.570;6.036;2022-08-05T05:34:25;101402.38;;;19.92;81.06
49827;BME280;35715;51.570;6.036;2022-08-05T05:36:51;101408.91;;;20.02;80.92
49827;BME280;35715;51.570;6.036;2022-08-05T05:39:16;101406.50;;;20.08;79.93
49827;BME280;35715;51.570;6.036;2022-08-05T05:41:41;101407.56;;;20.13;80.72
49827;BME280;35715;51.570;6.036;2022-08-05T05:44:07;101404.06;;;20.13;81.05
49827;BME280;35715;51.570;6.036;2022-08-05T05:46:34;101406.44;;;20.07;80.27
49827;BME280;35715;51.570;6.036;2022-08-05T05:48:59;101412.28;;;19.99;80.79
49827;BME280;35715;51.570;6.036;2022-08-05T05:51:24;101409.66;;;19.99;80.11
49827;BME280;35715;51.570;6.036;2022-08-05T05:53:51;101403.25;;;19.91;80.00
49827;BME280;35715;51.570;6.036;2022-08-05T05:56:22;101411.47;;;19.78;80.18
49827;BME280;35715;51.570;6.036;2022-08-05T05:58:47;101418.25;;;19.74;81.28
49827;BME280;35715;51.570;6.036;2022-08-05T06:01:13;101424.47;;;19.76;81.63
49827;BME280;35715;51.570;6.036;2022-08-05T06:03:42;101424.22;;;19.70;82.13
49827;BME280;35715;51.570;6.036;2022-08-05T06:06:10;101421.41;;;19.65;82.47
49827;BME280;35715;51.570;6.036;2022-08-05T06:08:36;101422.19;;;19.63;82.58
49827;BME280;35715;51.570;6.036;2022-08-05T06:11:01;101422.31;;;19.66;81.72
49827;BME280;35715;51.570;6.036;2022-08-05T06:13:26;101424.03;;;19.65;81.71
49827;BME280;35715;51.570;6.036;2022-08-05T06:15:53;101420.63;;;19.68;81.65
49827;BME280;35715;51.570;6.036;2022-08-05T06:18:18;101431.09;;;19.68;80.61
49827;BME280;35715;51.570;6.036;2022-08-05T06:20:44;101438.41;;;19.54;79.61
49827;BME280;35715;51.570;6.036;2022-08-05T06:23:28;101453.03;;;19.49;79.74
49827;BME280;35715;51.570;6.036;2022-08-05T06:26:14;101460.88;;;19.49;80.31
49827;BME280;35715;51.570;6.036;2022-08-05T06:28:39;101467.25;;;19.56;80.17
49827;BME280;35715;51.570;6.036;2022-08-05T06:31:05;101470.06;;;19.60;79.44
49827;BME280;35715;51.570;6.036;2022-08-05T06:33:31;101468.81;;;19.50;78.91
49827;BME280;35715;51.570;6.036;2022-08-05T06:35:58;101456.09;;;19.39;79.68
49827;BME280;35715;51.570;6.036;2022-08-05T06:38:42;101461.56;;;19.24;80.67
49827;BME280;35715;51.570;6.036;2022-08-05T06:41:08;101459.59;;;19.18;80.66
49827;BME280;35715;51.570;6.036;2022-08-05T06:43:33;101455.06;;;19.14;79.98
49827;BME280;35715;51.570;6.036;2022-08-05T06:45:59;101460.25;;;19.12;80.18
49827;BME280;35715;51.570;6.036;2022-08-05T06:48:24;101475.03;;;19.12;81.46
49827;BME280;35715;51.570;6.036;2022-08-05T06:50:50;101476.81;;;19.13;80.99
49827;BME280;35715;51.570;6.036;2022-08-05T06:53:15;101474.81;;;19.07;81.09
49827;BME280;35715;51.570;6.036;2022-08-05T06:55:45;101479.19;;;19.07;80.53
49827;BME280;35715;51.570;6.036;2022-08-05T06:58:10;101472.88;;;19.02;80.25
49827;BME280;35715;51.570;6.036;2022-08-05T07:00:35;101465.09;;;19.03;80.88
49827;BME280;35715;51.570;6.036;2022-08-05T07:03:01;101479.25;;;19.08;81.71
49827;BME280;35715;51.570;6.036;2022-08-05T07:05:28;101477.03;;;19.18;81.65
49827;BME280;35715;51.570;6.036;2022-08-05T07:07:53;101487.13;;;19.29;81.22
49827;BME280;35715;51.570;6.036;2022-08-05T07:10:19;101486.16;;;19.27;80.67
49827;BME280;35715;51.570;6.036;2022-08-05T07:12:44;101494.09;;;19.29;81.31
49827;BME280;35715;51.570;6.036;2022-08-05T07:15:33;101488.25;;;19.36;81.27
49827;BME280;35715;51.570;6.036;2022-08-05T07:18:24;101494.53;;;19.40;80.82
49827;BME280;35715;51.570;6.036;2022-08-05T07:20:50;101493.13;;;19.48;81.23
49827;BME280;35715;51.570;6.036;2022-08-05T07:23:15;101492.88;;;19.42;80.98
49827;BME280;35715;51.570;6.036;2022-08-05T07:25:45;101493.88;;;19.45;80.44
49827;BME280;35715;51.570;6.036;2022-08-05T07:28:29;101504.28;;;19.65;80.52
49827;BME280;35715;51.570;6.036;2022-08-05T07:30:55;101508.69;;;19.66;79.98
49827;BME280;35715;51.570;6.036;2022-08-05T07:33:21;101512.31;;;19.69;79.52
49827;BME280;35715;51.570;6.036;2022-08-05T07:35:46;101516.44;;;19.84;80.85
49827;BME280;35715;51.570;6.036;2022-08-05T07:38:13;101522.34;;;20.01;80.71
49827;BME280;35715;51.570;6.036;2022-08-05T07:40:38;101526.38;;;20.14;79.32
49827;BME280;35715;51.570;6.036;2022-08-05T07:43:04;101517.38;;;20.30;78.96
49827;BME280;35715;51.570;6.036;2022-08-05T07:48:15;101518.88;;;20.92;78.47
49827;BME280;35715;51.570;6.036;2022-08-05T07:50:40;101518.91;;;21.18;78.19
49827;BME280;35715;51.570;6.036;2022-08-05T07:53:05;101519.75;;;21.17;76.70
49827;BME280;35715;51.570;6.036;2022-08-05T07:55:31;101524.72;;;21.09;75.24
49827;BME280;35715;51.570;6.036;2022-08-05T07:57:57;101533.69;;;20.92;75.92
49827;BME280;35715;51.570;6.036;2022-08-05T08:00:22;101536.72;;;21.03;77.49
49827;BME280;35715;51.570;6.036;2022-08-05T08:03:10;101540.94;;;21.23;77.39
49827;BME280;35715;51.570;6.036;2022-08-05T08:05:41;101529.66;;;21.26;76.38
49827;BME280;35715;51.570;6.036;2022-08-05T08:08:11;101538.31;;;21.23;77.01
49827;BME280;35715;51.570;6.036;2022-08-05T08:10:37;101536.31;;;21.16;76.51
49827;BME280;35715;51.570;6.036;2022-08-05T08:13:04;101543.72;;;21.28;77.10
49827;BME280;35715;51.570;6.036;2022-08-05T08:15:35;101540.69;;;21.41;77.21
49827;BME280;35715;51.570;6.036;2022-08-05T08:18:01;101544.19;;;21.42;75.92
49827;BME280;35715;51.570;6.036;2022-08-05T08:20:26;101550.72;;;21.52;77.47
49827;BME280;35715;51.570;6.036;2022-08-05T08:23:10;101560.72;;;21.38;76.85
49827;BME280;35715;51.570;6.036;2022-08-05T08:25:37;101563.03;;;21.30;75.91
49827;BME280;35715;51.570;6.036;2022-08-05T08:28:02;101563.69;;;21.23;76.77
49827;BME280;35715;51.570;6.036;2022-08-05T08:30:28;101550.34;;;21.17;75.92
49827;BME280;35715;51.570;6.036;2022-08-05T08:32:53;101561.72;;;21.17;76.10
49827;BME280;35715;51.570;6.036;2022-08-05T08:35:25;101557.69;;;21.51;76.59
49827;BME280;35715;51.570;6.036;2022-08-05T08:37:50;101560.03;;;21.69;74.77
49827;BME280;35715;51.570;6.036;2022-08-05T08:40:16;101566.91;;;22.19;74.85
49827;BME280;35715;51.570;6.036;2022-08-05T08:42:47;101562.53;;;22.46;73.72
49827;BME280;35715;51.570;6.036;2022-08-05T08:45:16;101563.19;;;22.68;73.14
49827;BME280;35715;51.570;6.036;2022-08-05T08:47:44;101564.78;;;22.93;71.66
49827;BME280;35715;51.570;6.036;2022-08-05T08:50:11;101571.91;;;22.97;71.89
49827;BME280;35715;51.570;6.036;2022-08-05T08:52:38;101575.50;;;23.01;70.04
49827;BME280;35715;51.570;6.036;2022-08-05T08:55:03;101577.34;;;23.34;70.30
49827;BME280;35715;51.570;6.036;2022-08-05T08:57:29;101578.81;;;23.56;69.68
49827;BME280;35715;51.570;6.036;2022-08-05T08:59:56;101578.25;;;24.41;68.94
49827;BME280;35715;51.570;6.036;2022-08-05T09:02:22;101582.91;;;24.92;66.67
49827;BME280;35715;51.570;6.036;2022-08-05T09:04:47;101584.97;;;25.55;64.27
49827;BME280;35715;51.570;6.036;2022-08-05T09:07:14;101585.31;;;25.26;65.66
49827;BME280;35715;51.570;6.036;2022-08-05T09:09:39;101592.84;;;25.52;64.27
49827;BME280;35715;51.570;6.036;2022-08-05T09:12:07;101587.38;;;25.41;61.99
49827;BME280;35715;51.570;6.036;2022-08-05T09:14:34;101602.78;;;25.21;63.29
49827;BME280;35715;51.570;6.036;2022-08-05T09:17:08;101605.91;;;25.00;64.25
49827;BME280;35715;51.570;6.036;2022-08-05T09:19:34;101614.78;;;24.60;65.12
49827;BME280;35715;51.570;6.036;2022-08-05T09:22:00;101620.66;;;24.12;65.43
49827;BME280;35715;51.570;6.036;2022-08-05T09:24:26;101622.84;;;23.95;65.51
49827;BME280;35715;51.570;6.036;2022-08-05T09:26:57;101625.94;;;24.12;64.77
49827;BME280;35715;51.570;6.036;2022-08-05T09:29:41;101616.63;;;25.52;61.72
49827;BME280;35715;51.570;6.036;2022-08-05T09:32:10;101619.75;;;26.31;58.50
49827;BME280;35715;51.570;6.036;2022-08-05T09:34:52;101622.56;;;27.06;57.36
49827;BME280;35715;51.570;6.036;2022-08-05T09:37:25;101628.75;;;26.43;56.35
49827;BME280;35715;51.570;6.036;2022-08-05T09:39:52;101635.66;;;25.32;58.20
49827;BME280;35715;51.570;6.036;2022-08-05T09:42:20;101632.81;;;25.24;58.86
49827;BME280;35715;51.570;6.036;2022-08-05T09:44:48;101639.63;;;25.56;58.60
49827;BME280;35715;51.570;6.036;2022-08-05T09:47:18;101645.53;;;25.91;57.68
49827;BME280;35715;51.570;6.036;2022-08-05T09:55:00;101645.97;;;25.65;57.67
49827;BME280;35715;51.570;6.036;2022-08-05T09:57:36;101648.69;;;26.20;56.58
49827;BME280;35715;51.570;6.036;2022-08-05T10:00:16;101649.22;;;25.99;55.48
49827;BME280;35715;51.570;6.036;2022-08-05T10:02:44;101660.84;;;26.66;52.64
49827;BME280;35715;51.570;6.036;2022-08-05T10:05:19;101649.72;;;26.90;51.86
49827;BME280;35715;51.570;6.036;2022-08-05T10:07:47;101649.63;;;26.82;52.68
49827;BME280;35715;51.570;6.036;2022-08-05T10:10:13;101653.09;;;27.49;48.34
49827;BME280;35715;51.570;6.036;2022-08-05T10:12:45;101653.06;;;27.46;48.08
49827;BME280;35715;51.570;6.036;2022-08-05T10:18:17;101645.53;;;27.92;48.76
49827;BME280;35715;51.570;6.036;2022-08-05T10:20:50;101641.94;;;29.17;46.83
49827;BME280;35715;51.570;6.036;2022-08-05T10:23:25;101644.69;;;29.27;44.64
49827;BME280;35715;51.570;6.036;2022-08-05T10:25:54;101646.53;;;29.69;44.87
49827;BME280;35715;51.570;6.036;2022-08-05T10:28:39;101646.56;;;29.88;40.96
49827;BME280;35715;51.570;6.036;2022-08-05T10:33:48;101655.75;;;28.47;43.08
49827;BME280;35715;51.570;6.036;2022-08-05T10:36:17;101662.19;;;27.72;44.00
49827;BME280;35715;51.570;6.036;2022-08-05T10:38:45;101670.28;;;27.09;47.35
49827;BME280;35715;51.570;6.036;2022-08-05T10:41:15;101675.31;;;26.33;48.21
49827;BME280;35715;51.570;6.036;2022-08-05T10:43:56;101667.44;;;25.84;50.68
49827;BME280;35715;51.570;6.036;2022-08-05T10:46:23;101685.13;;;25.41;52.62
49827;BME280;35715;51.570;6.036;2022-08-05T10:51:47;101699.53;;;24.74;56.45
49827;BME280;35715;51.570;6.036;2022-08-05T10:54:14;101709.88;;;24.65;55.26
49827;BME280;35715;51.570;6.036;2022-08-05T10:56:54;101690.88;;;24.45;55.53
49827;BME280;35715;51.570;6.036;2022-08-05T10:59:26;101693.28;;;24.36;54.77
49827;BME280;35715;51.570;6.036;2022-08-05T11:02:07;101699.44;;;24.35;55.53
49827;BME280;35715;51.570;6.036;2022-08-05T11:04:47;101693.31;;;24.37;56.43
49827;BME280;35715;51.570;6.036;2022-08-05T11:07:18;101694.34;;;24.42;56.26
49827;BME280;35715;51.570;6.036;2022-08-05T11:09:47;101702.41;;;24.49;54.52
49827;BME280;35715;51.570;6.036;2022-08-05T11:15:17;101710.47;;;24.55;56.18
49827;BME280;35715;51.570;6.036;2022-08-05T11:17:50;101710.00;;;24.71;55.86
49827;BME280;35715;51.570;6.036;2022-08-05T11:23:26;101703.69;;;25.44;50.15
49827;BME280;35715;51.570;6.036;2022-08-05T11:28:47;101697.16;;;25.71;49.05
49827;BME280;35715;51.570;6.036;2022-08-05T11:33:51;101700.22;;;25.94;47.14
49827;BME280;35715;51.570;6.036;2022-08-05T11:36:38;101695.00;;;25.97;46.88
49827;BME280;35715;51.570;6.036;2022-08-05T11:41:51;101698.06;;;26.20;47.17
49827;BME280;35715;51.570;6.036;2022-08-05T11:44:19;101694.16;;;26.51;47.27
49827;BME280;35715;51.570;6.036;2022-08-05T11:46:50;101685.25;;;26.46;45.88
49827;BME280;35715;51.570;6.036;2022-08-05T11:52:00;101700.34;;;26.53;43.02
49827;BME280;35715;51.570;6.036;2022-08-05T11:54:27;101700.25;;;26.46;43.52
49827;BME280;35715;51.570;6.036;2022-08-05T11:56:55;101694.88;;;26.41;43.12
49827;BME280;35715;51.570;6.036;2022-08-05T11:59:23;101704.88;;;26.61;43.36
49827;BME280;35715;51.570;6.036;2022-08-05T12:01:57;101709.44;;;26.66;42.38
49827;BME280;35715;51.570;6.036;2022-08-05T12:04:24;101717.09;;;26.52;42.57
49827;BME280;35715;51.570;6.036;2022-08-05T12:06:50;101722.88;;;26.28;42.57
49827;BME280;35715;51.570;6.036;2022-08-05T12:09:25;101721.03;;;26.23;41.62
49827;BME280;35715;51.570;6.036;2022-08-05T12:11:56;101716.06;;;26.41;41.80
49827;BME280;35715;51.570;6.036;2022-08-05T12:14:21;101714.00;;;26.78;42.24
49827;BME280;35715;51.570;6.036;2022-08-05T12:16:49;101709.94;;;27.03;41.00
49827;BME280;35715;51.570;6.036;2022-08-05T12:19:15;101718.97;;;27.16;39.71
49827;BME280;35715;51.570;6.036;2022-08-05T12:21:49;101728.63;;;27.16;38.41
49827;BME280;35715;51.570;6.036;2022-08-05T12:24:19;101726.97;;;27.21;36.82
49827;BME280;35715;51.570;6.036;2022-08-05T12:26:49;101739.41;;;27.28;37.55
49827;BME280;35715;51.570;6.036;2022-08-05T12:29:15;101737.13;;;26.90;36.80
49827;BME280;35715;51.570;6.036;2022-08-05T12:32:00;101747.53;;;26.78;37.04
49827;BME280;35715;51.570;6.036;2022-08-05T12:34:30;101752.09;;;26.88;37.66
49827;BME280;35715;51.570;6.036;2022-08-05T12:36:57;101758.53;;;27.05;37.74
49827;BME280;35715;51.570;6.036;2022-08-05T12:39:24;101751.66;;;27.18;36.84
49827;BME280;35715;51.570;6.036;2022-08-05T12:41:56;101764.13;;;27.27;37.17
49827;BME280;35715;51.570;6.036;2022-08-05T12:44:22;101763.25;;;27.30;36.27
49827;BME280;35715;51.570;6.036;2022-08-05T12:47:03;101769.47;;;27.29;36.07
49827;BME280;35715;51.570;6.036;2022-08-05T12:49:45;101775.63;;;27.27;35.49
49827;BME280;35715;51.570;6.036;2022-08-05T12:52:17;101782.75;;;27.32;36.46
49827;BME280;35715;51.570;6.036;2022-08-05T12:54:43;101782.03;;;26.84;34.98
49827;BME280;35715;51.570;6.036;2022-08-05T13:00:24;101785.16;;;27.15;36.65
49827;BME280;35715;51.570;6.036;2022-08-05T13:02:51;101793.25;;;27.24;37.04
49827;BME280;35715;51.570;6.036;2022-08-05T13:05:19;101786.53;;;27.51;36.18
49827;BME280;35715;51.570;6.036;2022-08-05T13:07:45;101791.75;;;27.44;35.99
49827;BME280;35715;51.570;6.036;2022-08-05T13:10:12;101801.09;;;27.16;35.93
49827;BME280;35715;51.570;6.036;2022-08-05T13:12:42;101816.91;;;27.13;36.60
49827;BME280;35715;51.570;6.036;2022-08-05T13:15:08;101808.91;;;26.55;34.79
49827;BME280;35715;51.570;6.036;2022-08-05T13:17:34;101806.56;;;26.72;35.47
49827;BME280;35715;51.570;6.036;2022-08-05T13:20:03;101820.00;;;26.84;35.12
49827;BME280;35715;51.570;6.036;2022-08-05T13:22:34;101821.13;;;26.99;35.66
49827;BME280;35715;51.570;6.036;2022-08-05T13:25:01;101818.97;;;26.74;35.06
49827;BME280;35715;51.570;6.036;2022-08-05T13:27:47;101833.00;;;27.24;34.40
49827;BME280;35715;51.570;6.036;2022-08-05T13:30:22;101815.97;;;27.69;34.16
49827;BME280;35715;51.570;6.036;2022-08-05T13:32:52;101824.22;;;27.95;33.54
49827;BME280;35715;51.570;6.036;2022-08-05T13:35:19;101825.25;;;28.08;34.17
49827;BME280;35715;51.570;6.036;2022-08-05T13:37:44;101830.59;;;28.10;32.88
49827;BME280;35715;51.570;6.036;2022-08-05T13:40:11;101835.19;;;28.28;32.85
49827;BME280;35715;51.570;6.036;2022-08-05T13:42:37;101831.81;;;28.43;33.33
49827;BME280;35715;51.570;6.036;2022-08-05T13:45:06;101837.28;;;28.60;32.61
49827;BME280;35715;51.570;6.036;2022-08-05T13:47:32;101840.94;;;28.70;32.08
49827;BME280;35715;51.570;6.036;2022-08-05T13:50:03;101842.75;;;28.72;31.80
49827;BME280;35715;51.570;6.036;2022-08-05T13:52:28;101855.06;;;28.67;32.17
49827;BME280;35715;51.570;6.036;2022-08-05T13:54:54;101842.63;;;28.60;31.92